Time;durP1;ratioP1;P1;durP2;ratioP2;P2;SDS_P1;SDS_P2;PMS_P1;PMS_P2;Temp;Humidity;BMP_temperature;BMP_pressure;BME280_temperature;BME280_humidity;BME280_pressure;Samples;Min_cycle;Max_cycle;Signal;HPM_P1;HPM_P2
2022/10/16 00:00:34;;;;;;;;;;;;;;;18.87;52.77;100328.97;4304050;33;20330;-84
2022/10/16 00:03:01;;;;;;;;;;;;;;;18.74;52.92;100327.34;4312704;33;19984;-85
2022/10/16 00:05:28;;;;;;;;;;;;;;;18.88;53.04;100328.06;4313029;33;19984;-85
2022/10/16 00:07:55;;;;;;;;;;;;;;;18.76;52.93;100322.94;4313147;33;19996;-84
2022/10/16 00:10:22;;;;;;;;;;;;;;;18.81;53.48;100318.53;4321664;33;20478;-84
2022/10/16 00:12:49;;;;;;;;;;;;;;;18.83;53.31;100322.03;4314351;33;20475;-88
2022/10/16 00:15:16;;;;;;;;;;;;;;;18.61;53.20;100317.84;4324814;33;19999;-86
2022/10/16 00:17:43;;;;;;;;;;;;;;;18.76;52.52;100315.06;4307158;33;20478;-84
2022/10/16 00:20:10;;;;;;;;;;;;;;;18.83;52.07;100322.03;4324202;33;20066;-86
2022/10/16 00:22:55;;;;;;;;;;;;;;;18.81;52.33;100315.91;4323499;33;19992;-83
2022/10/16 00:25:22;;;;;;;;;;;;;;;18.71;52.63;100322.09;4317716;33;19999;-84
2022/10/16 00:27:49;;;;;;;;;;;;;;;18.68;52.70;100332.63;4310066;33;20087;-85
2022/10/16 00:30:16;;;;;;;;;;;;;;;18.63;52.79;100329.16;4311246;33;20069;-84
2022/10/16 00:32:43;;;;;;;;;;;;;;;18.53;52.79;100331.00;4313238;33;20290;-84
2022/10/16 00:35:09;;;;;;;;;;;;;;;18.56;52.62;100331.84;4317186;33;20716;-86
2022/10/16 00:37:36;;;;;;;;;;;;;;;18.33;53.35;100336.41;4311353;33;20003;-85
2022/10/16 00:40:03;;;;;;;;;;;;;;;18.41;53.16;100339.84;4298384;33;20043;-85
2022/10/16 00:42:30;;;;;;;;;;;;;;;18.41;52.92;100339.84;4318793;33;20028;-87
2022/10/16 00:44:57;;;;;;;;;;;;;;;18.39;53.21;100341.59;4298447;33;20043;-84
2022/10/16 00:47:26;;;;;;;;;;;;;;;18.28;53.31;100343.41;4310918;33;20501;-83
2022/10/16 00:49:55;;;;;;;;;;;;;;;18.27;53.31;100344.31;4297838;33;20047;-84
2022/10/16 00:52:22;;;;;;;;;;;;;;;18.16;53.43;100343.53;4297904;33;19995;-82
2022/10/16 00:54:49;;;;;;;;;;;;;;;18.17;53.52;100345.25;4311312;33;19984;-84
2022/10/16 00:57:16;;;;;;;;;;;;;;;18.06;53.69;100354.06;4298128;33;20372;-86
2022/10/16 00:59:42;;;;;;;;;;;;;;;18.03;53.61;100354.09;4303691;33;20011;-88
2022/10/16 01:02:12;;;;;;;;;;;;;;;18.03;53.55;100354.09;4318463;33;20734;-83
2022/10/16 01:04:39;;;;;;;;;;;;;;;18.03;53.55;100354.09;4312145;33;19988;-85
2022/10/16 01:07:10;;;;;;;;;;;;;;;18.06;53.51;100359.31;4312686;33;20026;-85
2022/10/16 01:09:41;;;;;;;;;;;;;;;18.02;53.69;100357.56;4311997;33;19988;-81
2022/10/16 01:12:10;;;;;;;;;;;;;;;18.08;53.22;100357.53;4324757;33;20002;-83
2022/10/16 01:14:44;;;;;;;;;;;;;;;17.98;53.72;100365.47;4307967;33;20011;-87
2022/10/16 01:17:22;;;;;;;;;;;;;;;17.85;53.68;100369.91;4309824;33;19996;-87
2022/10/16 01:19:52;;;;;;;;;;;;;;;17.86;53.71;100369.00;4311224;33;19980;-85
2022/10/16 01:22:19;;;;;;;;;;;;;;;17.75;53.80;100371.66;4313590;33;19992;-84
2022/10/16 01:24:48;;;;;;;;;;;;;;;17.74;53.73;100371.66;4311538;33;20008;-84
2022/10/16 01:27:25;;;;;;;;;;;;;;;17.64;53.87;100371.72;4312942;33;19987;-86
2022/10/16 01:30:07;;;;;;;;;;;;;;;17.60;53.89;100371.72;4313515;33;19984;-86
2022/10/16 01:32:38;;;;;;;;;;;;;;;17.37;54.37;100377.91;4313765;33;19986;-84
2022/10/16 01:35:07;;;;;;;;;;;;;;;17.40;54.31;100382.28;4313186;33;20010;-82
2022/10/16 01:37:35;;;;;;;;;;;;;;;17.32;54.77;100374.44;4312670;33;19991;-82
2022/10/16 01:40:03;;;;;;;;;;;;;;;16.90;55.26;100385.84;4319419;33;19988;-82
2022/10/16 01:42:37;;;;;;;;;;;;;;;17.16;54.81;100384.06;4307492;33;20024;-85
2022/10/16 01:45:06;;;;;;;;;;;;;;;17.14;54.76;100380.59;4305049;33;20036;-82
2022/10/16 01:47:33;;;;;;;;;;;;;;;17.13;54.77;100378.88;4314385;33;20047;-82
2022/10/16 01:50:00;;;;;;;;;;;;;;;16.91;55.19;100388.47;4313620;33;20022;-82
2022/10/16 01:52:27;;;;;;;;;;;;;;;17.15;54.41;100387.56;4314575;33;19984;-82
2022/10/16 01:54:54;;;;;;;;;;;;;;;17.14;54.57;100385.81;4313892;33;20532;-86
2022/10/16 01:57:21;;;;;;;;;;;;;;;16.85;55.35;100377.16;4313970;33;20039;-82
2022/10/16 01:59:49;;;;;;;;;;;;;;;16.98;55.07;100386.72;4313524;33;20615;-84
2022/10/16 02:02:17;;;;;;;;;;;;;;;17.06;54.85;100392.81;4315423;32;20026;-86
2022/10/16 02:04:46;;;;;;;;;;;;;;;16.95;55.15;100394.56;4306671;33;20770;-87
2022/10/16 02:07:13;;;;;;;;;;;;;;;16.86;55.29;100395.44;4314494;33;20048;-86
2022/10/16 02:09:39;;;;;;;;;;;;;;;16.95;54.86;100394.56;4327060;33;19987;-85
2022/10/16 02:12:22;;;;;;;;;;;;;;;16.94;55.04;100390.19;4327089;33;20007;-86
2022/10/16 02:14:49;;;;;;;;;;;;;;;16.81;55.31;100396.31;4303119;33;19997;-85
2022/10/16 02:17:17;;;;;;;;;;;;;;;16.73;55.18;100396.28;4322423;33;20366;-87
2022/10/16 02:19:44;;;;;;;;;;;;;;;16.71;55.14;100400.63;4313453;33;20701;-86
2022/10/16 02:22:15;;;;;;;;;;;;;;;16.65;54.78;100406.72;4322654;33;19968;-85
2022/10/16 02:25:02;;;;;;;;;;;;;;;16.79;54.58;100403.31;4311646;33;19999;-86
2022/10/16 02:27:40;;;;;;;;;;;;;;;16.92;53.95;100399.81;4312351;33;20043;-83
2022/10/16 02:30:21;;;;;;;;;;;;;;;16.93;53.70;100401.53;4312987;33;19976;-87
2022/10/16 02:32:48;;;;;;;;;;;;;;;16.95;53.68;100397.19;4311070;33;19980;-82
2022/10/16 02:35:16;;;;;;;;;;;;;;;16.92;53.61;100405.03;4311409;33;19980;-87
2022/10/16 02:37:43;;;;;;;;;;;;;;;17.02;53.42;100406.75;4310443;33;19992;-86
2022/10/16 02:40:10;;;;;;;;;;;;;;;17.04;53.50;100415.50;4313793;33;20330;-84
2022/10/16 02:42:37;;;;;;;;;;;;;;;16.72;54.18;100415.47;4313682;33;19972;-84
2022/10/16 02:45:05;;;;;;;;;;;;;;;16.78;54.09;100417.22;4327276;33;19998;-84
2022/10/16 02:47:31;;;;;;;;;;;;;;;16.65;54.31;100419.81;4313493;33;19992;-86
2022/10/16 02:50:01;;;;;;;;;;;;;;;16.59;54.59;100427.66;4327112;33;19999;-86
2022/10/16 02:52:28;;;;;;;;;;;;;;;16.55;54.70;100420.66;4313037;33;19984;-82
2022/10/16 02:54:55;;;;;;;;;;;;;;;16.48;54.92;100418.94;4326578;33;19999;-85
2022/10/16 02:57:22;;;;;;;;;;;;;;;16.40;54.97;100418.03;4321068;33;20014;-88
2022/10/16 02:59:49;;;;;;;;;;;;;;;16.31;55.12;100421.53;4325578;32;19999;-82
2022/10/16 03:02:16;;;;;;;;;;;;;;;16.28;55.25;100418.91;4313140;33;19998;-83
2022/10/16 03:04:43;;;;;;;;;;;;;;;16.36;54.89;100419.78;4326924;33;19995;-82
2022/10/16 03:07:10;;;;;;;;;;;;;;;16.18;55.30;100424.97;4326966;33;20047;-85
2022/10/16 03:09:37;;;;;;;;;;;;;;;16.19;55.28;100427.59;4327051;33;20019;-87
2022/10/16 03:12:04;;;;;;;;;;;;;;;16.19;55.28;100422.34;4312865;33;20014;-83
2022/10/16 03:14:30;;;;;;;;;;;;;;;16.00;55.91;100431.00;4313621;33;20038;-84
2022/10/16 03:16:58;;;;;;;;;;;;;;;15.92;56.16;100424.88;4052017;33;10003760;-84
2022/10/16 03:19:25;;;;;;;;;;;;;;;15.89;56.31;100432.69;4326507;33;20019;-82
2022/10/16 03:21:52;;;;;;;;;;;;;;;15.93;55.97;100435.34;4326695;33;20300;-87
2022/10/16 03:24:19;;;;;;;;;;;;;;;15.93;55.82;100439.69;4309977;33;19991;-84
2022/10/16 03:26:46;;;;;;;;;;;;;;;15.85;55.89;100441.38;4300731;33;20047;-84
2022/10/16 03:29:13;;;;;;;;;;;;;;;15.76;56.01;100448.34;4320688;33;20071;-84
2022/10/16 03:31:40;;;;;;;;;;;;;;;15.45;57.03;100447.25;4310352;33;20024;-85
2022/10/16 03:34:07;;;;;;;;;;;;;;;15.52;56.60;100448.16;4319947;33;20015;-86
2022/10/16 03:36:33;;;;;;;;;;;;;;;15.44;56.81;100444.63;4315103;33;19999;-82
2022/10/16 03:39:00;;;;;;;;;;;;;;;15.41;56.69;100460.25;4317862;33;19960;-87
2022/10/16 03:41:27;;;;;;;;;;;;;;;15.49;56.45;100453.38;4312011;33;19987;-82
2022/10/16 03:43:54;;;;;;;;;;;;;;;15.48;56.37;100459.44;4318878;33;20400;-85
2022/10/16 03:46:21;;;;;;;;;;;;;;;15.48;56.45;100446.41;4313299;33;19979;-83
2022/10/16 03:48:48;;;;;;;;;;;;;;;15.40;56.46;100453.31;4311672;33;20003;-82
2022/10/16 03:51:14;;;;;;;;;;;;;;;15.27;56.62;100466.25;4312189;33;20314;-85
2022/10/16 03:53:41;;;;;;;;;;;;;;;15.13;56.77;100457.47;4310582;33;19984;-85
2022/10/16 03:56:08;;;;;;;;;;;;;;;14.97;57.41;100463.44;4017160;33;20072;-85
2022/10/16 03:58:35;;;;;;;;;;;;;;;14.79;58.08;100464.13;4297454;33;20044;-85
2022/10/16 04:01:02;;;;;;;;;;;;;;;14.91;57.53;100463.38;4296326;33;20672;-86
2022/10/16 04:03:30;;;;;;;;;;;;;;;14.88;57.41;100466.84;4310662;33;19996;-83
2022/10/16 04:05:57;;;;;;;;;;;;;;;14.81;57.72;100468.50;4312308;33;20031;-85
2022/10/16 04:08:23;;;;;;;;;;;;;;;14.82;57.61;100472.00;4310378;33;19984;-86
2022/10/16 04:10:50;;;;;;;;;;;;;;;14.66;58.08;100478.78;4310153;33;19980;-82
2022/10/16 04:13:17;;;;;;;;;;;;;;;14.40;58.97;100479.38;4302323;33;20418;-86
2022/10/16 04:15:49;;;;;;;;;;;;;;;14.64;58.29;100483.09;4298795;33;20409;-85
2022/10/16 04:18:16;;;;;;;;;;;;;;;14.69;57.87;100478.81;4303611;33;20006;-84
2022/10/16 04:20:42;;;;;;;;;;;;;;;14.52;58.31;100483.00;4277832;33;19984;-83
2022/10/16 04:23:10;;;;;;;;;;;;;;;14.65;57.73;100472.72;4308150;33;19985;-84
2022/10/16 04:25:37;;;;;;;;;;;;;;;14.57;58.18;100483.91;4305581;33;20796;-84
2022/10/16 04:28:04;;;;;;;;;;;;;;;14.67;57.93;100479.66;4302195;33;19981;-84
2022/10/16 04:30:33;;;;;;;;;;;;;;;14.70;57.48;100474.47;4297846;33;20067;-87
2022/10/16 04:33:01;;;;;;;;;;;;;;;14.59;57.51;100482.19;4305367;33;20085;-88
2022/10/16 04:35:28;;;;;;;;;;;;;;;14.72;56.94;100483.19;4311865;33;20028;-84
2022/10/16 04:37:56;;;;;;;;;;;;;;;14.62;57.11;100487.44;4306788;33;20663;-84
2022/10/16 04:40:24;;;;;;;;;;;;;;;14.59;57.18;100482.19;4296702;33;19987;-88
2022/10/16 04:42:50;;;;;;;;;;;;;;;14.48;57.44;100478.56;4296985;33;20043;-85
2022/10/16 04:45:17;;;;;;;;;;;;;;;14.40;57.86;100481.97;4302015;33;19988;-85
2022/10/16 04:47:44;;;;;;;;;;;;;;;14.31;57.93;100489.69;4298645;33;20345;-87
2022/10/16 04:50:11;;;;;;;;;;;;;;;14.49;57.40;100493.34;4319267;33;20535;-83
2022/10/16 04:52:37;;;;;;;;;;;;;;;14.35;57.95;100494.06;4311557;33;20036;-83
2022/10/16 04:55:05;;;;;;;;;;;;;;;14.41;57.63;100499.34;4311703;33;20088;-82
2022/10/16 04:57:33;;;;;;;;;;;;;;;14.48;57.26;100495.06;4282493;33;20353;-85
2022/10/16 05:00:00;;;;;;;;;;;;;;;14.33;57.64;100498.41;4282522;33;20007;-87
2022/10/16 05:02:27;;;;;;;;;;;;;;;14.25;57.87;100494.81;4281958;33;19993;-85
2022/10/16 05:04:53;;;;;;;;;;;;;;;14.26;57.80;100499.16;4284454;33;20447;-85
2022/10/16 05:07:20;;;;;;;;;;;;;;;14.00;58.73;100497.97;4290624;33;20001;-82
2022/10/16 05:09:47;;;;;;;;;;;;;;;14.08;58.46;100498.97;4285298;33;19985;-87
2022/10/16 05:12:14;;;;;;;;;;;;;;;14.21;58.05;100495.63;4286415;33;20302;-83
2022/10/16 05:14:40;;;;;;;;;;;;;;;14.13;58.42;100502.47;4289864;33;20267;-85
2022/10/16 05:17:07;;;;;;;;;;;;;;;14.11;58.51;100504.19;4291682;33;20349;-85
2022/10/16 05:19:34;;;;;;;;;;;;;;;14.26;58.03;100504.38;4287827;33;20017;-87
2022/10/16 05:22:01;;;;;;;;;;;;;;;14.26;57.93;100506.97;4296694;33;19985;-83
2022/10/16 05:24:28;;;;;;;;;;;;;;;14.12;58.86;100506.81;4292527;33;20349;-81
2022/10/16 05:26:55;;;;;;;;;;;;;;;14.26;58.43;100508.69;4288056;33;19981;-81
2022/10/16 05:29:22;;;;;;;;;;;;;;;14.34;58.22;100513.16;4296463;33;20003;-81
2022/10/16 05:31:52;;;;;;;;;;;;;;;14.31;58.13;100507.91;4294947;33;19992;-81
2022/10/16 05:34:20;;;;;;;;;;;;;;;14.30;57.81;100511.37;4296638;33;20048;-88
2022/10/16 05:36:46;;;;;;;;;;;;;;;14.43;57.39;100517.59;4296628;33;19993;-85
2022/10/16 05:39:14;;;;;;;;;;;;;;;14.13;58.89;100529.38;4296788;33;19976;-81
2022/10/16 05:41:41;;;;;;;;;;;;;;;14.43;57.83;100523.69;4297998;33;20289;-85
2022/10/16 05:44:08;;;;;;;;;;;;;;;14.35;58.28;100520.09;4299040;33;20432;-90
2022/10/16 05:46:35;;;;;;;;;;;;;;;14.31;58.29;100523.53;4298756;33;19988;-79
2022/10/16 05:49:01;;;;;;;;;;;;;;;14.18;58.94;100526.84;4298517;33;19987;-90
2022/10/16 05:51:28;;;;;;;;;;;;;;;14.27;58.87;100526.97;4299538;33;19988;-86
2022/10/16 05:53:55;;;;;;;;;;;;;;;14.19;59.36;100539.00;4300180;33;19980;-91
2022/10/16 05:56:22;;;;;;;;;;;;;;;14.35;58.72;100535.72;4314016;33;19979;-93
2022/10/16 05:58:48;;;;;;;;;;;;;;;14.37;59.10;100536.63;4327354;33;20047;-90
2022/10/16 06:01:16;;;;;;;;;;;;;;;14.45;59.08;100531.50;4321366;33;20008;-89
2022/10/16 06:03:43;;;;;;;;;;;;;;;14.61;58.76;100532.56;4302990;33;19992;-92
2022/10/16 06:06:11;;;;;;;;;;;;;;;14.58;58.95;100532.53;4312854;33;20337;-91
2022/10/16 06:08:38;;;;;;;;;;;;;;;14.84;58.49;100541.53;4322780;33;19988;-93
2022/10/16 06:11:06;;;;;;;;;;;;;;;14.98;58.53;100548.59;4326847;33;19976;-89
2022/10/16 06:13:33;;;;;;;;;;;;;;;15.01;58.55;100552.09;4303723;33;20011;-94
2022/10/16 06:15:59;;;;;;;;;;;;;;;15.11;58.50;100550.44;4308647;33;20003;-93
2022/10/16 06:18:27;;;;;;;;;;;;;;;15.26;57.84;100555.81;4304272;33;19991;-90
2022/10/16 06:20:54;;;;;;;;;;;;;;;15.44;56.99;100559.41;4297879;33;19973;-92
2022/10/16 06:23:20;;;;;;;;;;;;;;;15.48;56.80;100556.00;4301773;33;20063;-91
2022/10/16 06:25:47;;;;;;;;;;;;;;;15.57;56.67;100566.47;4311716;33;19988;-90
2022/10/16 06:28:14;;;;;;;;;;;;;;;15.64;56.58;100576.13;4305688;33;19976;-89
2022/10/16 06:30:43;;;;;;;;;;;;;;;15.73;56.90;100577.94;4311288;33;20004;-94
2022/10/16 06:33:10;;;;;;;;;;;;;;;15.73;56.15;100584.06;4307340;33;20289;-89
2022/10/16 06:35:37;;;;;;;;;;;;;;;15.84;56.12;100581.50;4304102;33;19988;-90
2022/10/16 06:38:04;;;;;;;;;;;;;;;16.03;54.86;100578.12;4310579;33;20011;-83
2022/10/16 06:40:31;;;;;;;;;;;;;;;15.90;55.61;100575.44;4313135;33;19984;-92
2022/10/16 06:42:57;;;;;;;;;;;;;;;16.17;55.20;100586.03;4312921;33;19988;-88
2022/10/16 06:45:25;;;;;;;;;;;;;;;16.11;55.41;100580.78;4303642;33;19996;-87
2022/10/16 06:47:52;;;;;;;;;;;;;;;16.29;54.91;100587.84;4312472;33;19983;-89
2022/10/16 06:50:19;;;;;;;;;;;;;;;16.28;54.80;100597.41;4311722;33;20678;-95
2022/10/16 06:52:46;;;;;;;;;;;;;;;16.32;54.59;100605.28;4311102;33;20031;-91
2022/10/16 06:55:13;;;;;;;;;;;;;;;16.61;54.14;100614.09;4311457;33;20365;-92
2022/10/16 06:57:39;;;;;;;;;;;;;;;16.73;54.02;100611.53;4305812;33;20003;-87
2022/10/16 07:00:06;;;;;;;;;;;;;;;16.80;53.20;100611.59;4311552;33;19999;-94
2022/10/16 07:02:33;;;;;;;;;;;;;;;17.19;51.91;100613.41;4312904;33;19998;-91
2022/10/16 07:05:00;;;;;;;;;;;;;;;17.48;52.12;100612.56;4309906;33;20524;-89
2022/10/16 07:07:27;;;;;;;;;;;;;;;17.86;51.31;100613.44;4305268;33;20445;-87
2022/10/16 07:09:54;;;;;;;;;;;;;;;18.22;50.85;100610.75;4312420;33;19995;-88
2022/10/16 07:12:20;;;;;;;;;;;;;;;18.49;49.16;100621.16;4312614;33;20338;-93
2022/10/16 07:14:47;;;;;;;;;;;;;;;18.26;47.17;100629.09;4312333;33;19988;-92
2022/10/16 07:17:14;;;;;;;;;;;;;;;18.76;48.01;100635.06;4307091;33;19980;-90
2022/10/16 07:19:41;;;;;;;;;;;;;;;19.01;47.59;100630.56;4303008;33;19999;-92
2022/10/16 07:22:08;;;;;;;;;;;;;;;19.20;45.44;100631.31;4286193;33;20353;-90
2022/10/16 07:24:35;;;;;;;;;;;;;;;19.34;45.70;100634.75;4306019;33;19988;-93
2022/10/16 07:27:01;;;;;;;;;;;;;;;19.51;45.86;100635.47;4298147;33;20039;-92
2022/10/16 07:29:28;;;;;;;;;;;;;;;19.55;45.13;100635.44;4297227;33;20425;-89
2022/10/16 07:31:55;;;;;;;;;;;;;;;19.75;44.20;100625.69;4297345;33;19980;-90
2022/10/16 07:34:22;;;;;;;;;;;;;;;19.83;44.81;100625.62;4301155;33;19988;-94
2022/10/16 07:36:49;;;;;;;;;;;;;;;19.88;44.33;100624.69;4303707;33;20036;-89
2022/10/16 07:39:16;;;;;;;;;;;;;;;20.14;45.29;100618.31;4304054;33;20498;-88
2022/10/16 07:41:43;;;;;;;;;;;;;;;20.32;44.40;100623.34;4297955;33;20180;-95
2022/10/16 07:44:10;;;;;;;;;;;;;;;20.55;43.24;100630.13;4311611;33;20460;-87
2022/10/16 07:46:37;;;;;;;;;;;;;;;20.77;41.81;100634.25;4310284;33;19984;-88
2022/10/16 07:49:04;;;;;;;;;;;;;;;20.75;41.64;100638.66;4309699;33;19999;-86
2022/10/16 07:51:30;;;;;;;;;;;;;;;20.94;43.11;100644.53;4305447;33;20329;-92
2022/10/16 07:53:58;;;;;;;;;;;;;;;20.98;41.22;100640.09;4310900;33;20015;-88
2022/10/16 07:56:25;;;;;;;;;;;;;;;21.13;41.33;100646.03;4320248;33;19980;-90
2022/10/16 07:58:52;;;;;;;;;;;;;;;21.16;41.71;100655.66;4315007;33;19999;-87
2022/10/16 08:01:19;;;;;;;;;;;;;;;21.28;42.08;100650.19;4312148;33;20014;-88
2022/10/16 08:03:47;;;;;;;;;;;;;;;21.33;41.71;100653.63;4323152;33;19984;-85
2022/10/16 08:06:14;;;;;;;;;;;;;;;21.40;41.86;100658.84;4310253;33;20535;-81
2022/10/16 08:08:41;;;;;;;;;;;;;;;21.56;40.41;100670.87;4307804;33;19983;-85
2022/10/16 08:11:08;;;;;;;;;;;;;;;21.23;40.75;100665.19;4324528;33;19980;-82
2022/10/16 08:13:35;;;;;;;;;;;;;;;21.37;42.48;100676.41;4311145;33;20618;-83
2022/10/16 08:16:03;;;;;;;;;;;;;;;21.22;41.64;100675.72;4312014;33;19983;-85
2022/10/16 08:18:30;;;;;;;;;;;;;;;21.32;41.98;100675.59;4319341;33;20051;-85
2022/10/16 08:20:58;;;;;;;;;;;;;;;21.63;41.66;100669.88;4326248;33;20024;-85
2022/10/16 08:23:25;;;;;;;;;;;;;;;21.62;41.54;100676.03;4310354;33;19984;-85
2022/10/16 08:25:54;;;;;;;;;;;;;;;21.70;41.30;100671.53;4312514;33;19976;-85
2022/10/16 08:28:21;;;;;;;;;;;;;;;21.75;41.02;100688.13;4325747;33;19976;-88
2022/10/16 08:30:48;;;;;;;;;;;;;;;21.71;41.91;100691.72;4309532;33;20811;-86
2022/10/16 08:33:15;;;;;;;;;;;;;;;21.59;42.27;100681.34;4312362;33;19983;-88
2022/10/16 08:35:42;;;;;;;;;;;;;;;21.90;40.74;100681.72;4319773;33;19999;-89
2022/10/16 08:38:09;;;;;;;;;;;;;;;21.56;42.20;100691.94;4316880;33;19987;-85
2022/10/16 08:40:36;;;;;;;;;;;;;;;22.07;39.95;100689.34;4318513;33;19998;-87
2022/10/16 08:43:06;;;;;;;;;;;;;;;21.96;41.29;100692.19;4297921;33;20007;-86
2022/10/16 08:45:38;;;;;;;;;;;;;;;22.10;40.91;100689.28;4300330;33;19992;-87
2022/10/16 08:48:25;;;;;;;;;;;;;;;21.95;41.35;100689.53;4312848;33;19983;-89
2022/10/16 08:50:52;;;;;;;;;;;;;;;22.21;40.67;100692.66;4324433;33;20019;-87
2022/10/16 08:53:27;;;;;;;;;;;;;;;21.85;40.30;100695.88;4309980;33;19995;-88
2022/10/16 08:55:54;;;;;;;;;;;;;;;22.05;41.80;100701.69;4302054;33;20427;-90
2022/10/16 08:58:28;;;;;;;;;;;;;;;22.20;40.42;100701.44;4310042;33;19976;-90
2022/10/16 09:00:56;;;;;;;;;;;;;;;21.97;40.41;100703.59;4318886;33;19984;-88
2022/10/16 09:03:46;;;;;;;;;;;;;;;22.05;40.86;100706.97;4309311;33;20007;-90
2022/10/16 09:06:31;;;;;;;;;;;;;;;21.60;42.24;100704.16;4293125;33;19999;-92
2022/10/16 09:09:31;;;;;;;;;;;;;;;21.42;41.70;100705.34;4318939;33;19984;-84
2022/10/16 09:12:00;;;;;;;;;;;;;;;21.70;44.02;100708.44;4292540;33;20000;-82
2022/10/16 09:14:36;;;;;;;;;;;;;;;21.88;41.95;100714.28;4323365;33;19991;-81
2022/10/16 09:17:21;;;;;;;;;;;;;;;21.66;42.52;100714.63;4307822;33;19980;-81
2022/10/16 09:19:52;;;;;;;;;;;;;;;22.08;41.63;100716.56;4310839;33;20001;-81
2022/10/16 09:22:18;;;;;;;;;;;;;;;22.25;40.25;100714.56;4309462;33;20010;-82
2022/10/16 09:24:45;;;;;;;;;;;;;;;;;;4309497;33;19992;-81
2022/10/16 09:27:13;;;;;;;;;;;;;;;22.40;39.29;100713.38;4325756;33;19995;-82
2022/10/16 09:29:40;;;;;;;;;;;;;;;21.99;41.47;100707.06;4311369;33;20003;-82
2022/10/16 09:32:10;;;;;;;;;;;;;;;22.40;40.55;100702.84;4309271;33;20040;-80
2022/10/16 09:34:38;;;;;;;;;;;;;;;22.00;42.14;100708.81;4308968;33;20003;-82
2022/10/16 09:37:08;;;;;;;;;;;;;;;21.98;41.74;100705.31;4310944;33;20032;-89
2022/10/16 09:39:51;;;;;;;;;;;;;;;22.49;40.33;100710.59;4305560;33;20278;-86
2022/10/16 09:42:18;;;;;;;;;;;;;;;22.26;41.63;100706.59;4308560;33;19988;-84
2022/10/16 09:44:49;;;;;;;;;;;;;;;22.73;39.77;100706.62;4310523;33;19984;-87
2022/10/16 09:47:18;;;;;;;;;;;;;;;22.75;40.24;100705.69;4321503;33;19976;-91
2022/10/16 09:49:52;;;;;;;;;;;;;;;22.59;40.32;100714.81;4321740;33;20036;-90
2022/10/16 09:52:19;;;;;;;;;;;;;;;22.65;39.61;100719.94;4312004;33;20024;-86
2022/10/16 09:54:52;;;;;;;;;;;;;;;22.87;39.87;100719.53;4322981;33;19990;-82
2022/10/16 09:57:20;;;;;;;;;;;;;;;22.91;39.94;100727.38;4305318;33;19976;-88
2022/10/16 09:59:54;;;;;;;;;;;;;;;22.89;38.21;100718.59;4318045;33;20067;-81
2022/10/16 10:02:31;;;;;;;;;;;;;;;23.01;38.96;100717.50;4297338;33;20040;-84
2022/10/16 10:04:58;;;;;;;;;;;;;;;23.05;39.66;100719.19;4308124;33;20339;-86
2022/10/16 10:07:33;;;;;;;;;;;;;;;22.73;40.66;100731.22;4297705;33;19999;-89
2022/10/16 10:10:01;;;;;;;;;;;;;;;22.87;39.99;100724.81;4314126;33;20041;-83
2022/10/16 10:12:28;;;;;;;;;;;;;;;23.15;40.35;100720.72;4295218;33;19994;-82
2022/10/16 10:14:56;;;;;;;;;;;;;;;23.46;39.27;100711.25;4299056;33;20006;-85
2022/10/16 10:17:24;;;;;;;;;;;;;;;23.37;40.63;100707.03;4303284;33;19981;-80
2022/10/16 10:19:55;;;;;;;;;;;;;;;23.59;38.76;100716.19;4312023;33;19992;-82
2022/10/16 10:22:26;;;;;;;;;;;;;;;23.59;38.18;100699.47;4296544;33;19988;-79
2022/10/16 10:24:57;;;;;;;;;;;;;;;23.70;38.07;100707.19;4314261;33;20014;-84
2022/10/16 10:27:27;;;;;;;;;;;;;;;23.52;40.49;100706.69;4321697;33;20063;-80
2022/10/16 10:29:58;;;;;;;;;;;;;;;23.18;39.12;100706.56;4311972;33;20385;-83
2022/10/16 10:32:24;;;;;;;;;;;;;;;23.39;40.61;100697.31;4306240;33;19999;-83
2022/10/16 10:34:52;;;;;;;;;;;;;;;23.64;39.59;100692.28;4296954;33;19999;-84
2022/10/16 10:37:22;;;;;;;;;;;;;;;23.59;39.41;100691.56;4304120;33;19985;-86
2022/10/16 10:40:02;;;;;;;;;;;;;;;23.43;38.85;100693.69;4301069;33;20007;-84
2022/10/16 10:42:29;;;;;;;;;;;;;;;23.36;38.62;100700.03;4295194;33;19980;-80
2022/10/16 10:45:13;;;;;;;;;;;;;;;23.49;39.12;100697.97;4307787;33;19987;-81
2022/10/16 10:47:40;;;;;;;;;;;;;;;23.48;38.17;100697.06;4309346;33;19998;-81
2022/10/16 10:50:13;;;;;;;;;;;;;;;23.78;38.66;100694.66;4309550;33;19995;-85
2022/10/16 10:52:42;;;;;;;;;;;;;;;23.24;38.70;100697.66;4294615;33;20058;-83
2022/10/16 10:55:13;;;;;;;;;;;;;;;23.47;40.08;100695.34;4301218;33;19995;-85
2022/10/16 10:57:46;;;;;;;;;;;;;;;23.43;37.74;100693.69;4295806;33;19985;-81
2022/10/16 11:00:17;;;;;;;;;;;;;;;23.91;38.04;100690.78;4307838;33;20683;-84
2022/10/16 11:02:46;;;;;;;;;;;;;;;23.19;38.44;100695.97;4301788;33;19992;-84
2022/10/16 11:05:26;;;;;;;;;;;;;;;23.27;40.67;100698.44;4294856;33;19980;-83
2022/10/16 11:07:55;;;;;;;;;;;;;;;23.89;38.63;100692.59;4295053;33;20028;-85
2022/10/16 11:10:24;;;;;;;;;;;;;;;23.93;38.06;100694.28;4285304;33;20317;-89
2022/10/16 11:12:52;;;;;;;;;;;;;;;23.78;37.84;100695.50;4296668;33;20087;-87
2022/10/16 11:15:29;;;;;;;;;;;;;;;23.56;38.27;100692.47;4299587;33;20119;-85
2022/10/16 11:18:07;;;;;;;;;;;;;;;23.78;38.30;100689.38;4296663;33;19999;-85
2022/10/16 11:20:34;;;;;;;;;;;;;;;23.74;38.54;100679.75;4296598;33;20039;-84
2022/10/16 11:23:11;;;;;;;;;;;;;;;24.00;38.32;100673.81;4296059;33;19992;-86
2022/10/16 11:25:38;;;;;;;;;;;;;;;23.70;39.55;100680.75;4293695;33;20044;-82
2022/10/16 11:28:10;;;;;;;;;;;;;;;23.69;38.05;100674.59;4295100;33;19988;-85
2022/10/16 11:30:47;;;;;;;;;;;;;;;23.94;37.88;100679.28;4295326;33;19992;-80
2022/10/16 11:33:17;;;;;;;;;;;;;;;23.62;37.06;100667.69;4296987;33;20011;-82
2022/10/16 11:35:47;;;;;;;;;;;;;;;23.50;38.56;100674.13;4305224;33;19984;-80
2022/10/16 11:38:22;;;;;;;;;;;;;;;23.49;37.10;100677.69;4295223;33;19976;-83
2022/10/16 11:40:50;;;;;;;;;;;;;;;23.65;38.48;100680.84;4307362;33;19988;-82
2022/10/16 11:43:18;;;;;;;;;;;;;;;23.86;37.26;100682.09;4306767;33;19980;-83
2022/10/16 11:45:50;;;;;;;;;;;;;;;23.76;38.19;100680.59;4304064;33;20055;-82
2022/10/16 11:48:24;;;;;;;;;;;;;;;23.62;37.12;100676.47;4291472;33;19996;-80
2022/10/16 11:50:56;;;;;;;;;;;;;;;23.97;37.51;100676.53;4291651;33;19988;-78
2022/10/16 11:53:54;;;;;;;;;;;;;;;24.09;38.68;100677.09;4294318;33;20006;-82
2022/10/16 11:56:20;;;;;;;;;;;;;;;24.12;39.08;100668.19;4282357;33;19999;-81
2022/10/16 11:58:47;;;;;;;;;;;;;;;24.25;37.39;100671.37;4302072;33;20675;-82
2022/10/16 12:01:22;;;;;;;;;;;;;;;24.06;36.97;100674.53;4313797;33;20113;-79
2022/10/16 12:03:59;;;;;;;;;;;;;;;24.02;37.80;100662.28;4309133;33;20011;-78
2022/10/16 12:06:49;;;;;;;;;;;;;;;24.14;37.44;100672.53;4321997;33;20014;-79
2022/10/16 12:09:20;;;;;;;;;;;;;;;24.19;35.79;100668.91;4309898;33;20031;-79
2022/10/16 12:11:47;;;;;;;;;;;;;;;24.20;36.40;100665.34;4317798;33;20035;-78
2022/10/16 12:14:13;;;;;;;;;;;;;;;23.76;37.18;100662.09;4319227;33;20003;-81
2022/10/16 12:16:53;;;;;;;;;;;;;;;24.18;36.64;100656.59;4320578;33;19999;-78
2022/10/16 12:19:20;;;;;;;;;;;;;;;23.64;37.82;100661.47;4323832;33;19995;-76
2022/10/16 12:21:47;;;;;;;;;;;;;;;23.95;36.86;100658.06;4309491;33;19980;-77
2022/10/16 12:24:22;;;;;;;;;;;;;;;23.40;38.00;100656.75;4294404;33;19988;-83
2022/10/16 12:26:49;;;;;;;;;;;;;;;23.80;37.35;100655.81;4313125;33;20040;-82
2022/10/16 12:29:32;;;;;;;;;;;;;;;23.36;38.30;100649.81;4315200;33;19977;-81
2022/10/16 12:31:59;;;;;;;;;;;;;;;23.49;36.67;100651.25;4305601;33;20001;-81
2022/10/16 12:34:32;;;;;;;;;;;;;;;23.69;37.99;100648.16;4303287;33;20015;-85
2022/10/16 12:37:13;;;;;;;;;;;;;;;23.57;38.40;100649.28;4011574;33;10004046;-80
2022/10/16 12:39:40;;;;;;;;;;;;;;;23.83;38.56;100646.00;4309314;33;20338;-79
2022/10/16 12:42:19;;;;;;;;;;;;;;;23.27;37.82;100650.03;4316992;33;20092;-77
2022/10/16 12:44:46;;;;;;;;;;;;;;;23.43;37.14;100651.41;4322012;33;20047;-80
2022/10/16 12:47:24;;;;;;;;;;;;;;;23.67;36.97;100645.53;4317480;33;19987;-77